createdAt,value
2019-03-28T00:01:01.192Z,21.40
2019-03-28T00:07:05.837Z,14.17
2019-03-28T00:13:10.559Z,12.90
2019-03-28T00:19:15.178Z,17.10
2019-03-28T00:25:20.181Z,12.30
2019-03-28T00:31:24.755Z,13.40
2019-03-28T00:37:29.326Z,14.53
2019-03-28T00:43:34.009Z,19.00
2019-03-28T00:49:38.589Z,12.73
2019-03-28T00:55:43.244Z,25.83
2019-03-28T01:01:47.918Z,17.93
2019-03-28T01:07:52.583Z,15.17
2019-03-28T01:13:57.158Z,21.07
2019-03-28T01:20:01.767Z,15.97
2019-03-28T01:26:06.442Z,18.70
2019-03-28T01:32:11.087Z,19.77
2019-03-28T01:38:15.753Z,18.63
2019-03-28T01:44:20.328Z,13.30
2019-03-28T01:50:24.950Z,25.10
2019-03-28T01:56:29.519Z,18.60
2019-03-28T02:02:34.175Z,22.17
2019-03-28T02:08:38.844Z,21.87
2019-03-28T02:14:43.433Z,21.90
2019-03-28T02:20:48.046Z,15.70
2019-03-28T02:26:52.620Z,18.07
2019-03-28T02:32:57.208Z,17.93
2019-03-28T02:39:01.818Z,25.00
2019-03-28T02:45:08.119Z,20.40
2019-03-28T02:51:12.745Z,23.07
2019-03-28T02:57:17.347Z,28.50
2019-03-28T03:03:21.947Z,23.87
2019-03-28T03:09:26.562Z,20.30
2019-03-28T03:15:31.286Z,21.93
2019-03-28T03:21:36.054Z,22.43
2019-03-28T03:27:56.163Z,25.50
2019-03-28T03:33:47.336Z,22.13
2019-03-28T03:39:51.951Z,23.03
2019-03-28T03:45:56.540Z,23.40
2019-03-28T03:52:01.178Z,24.97
2019-03-28T03:58:15.617Z,26.43
2019-03-28T04:04:12.221Z,26.30
2019-03-28T04:10:16.817Z,22.40
2019-03-28T04:16:21.451Z,31.73
2019-03-28T04:22:26.034Z,27.97
2019-03-28T04:28:32.574Z,26.40
2019-03-28T04:34:36.959Z,39.13
2019-03-28T04:40:41.619Z,36.33
2019-03-28T04:46:46.190Z,32.80
2019-03-28T04:52:52.903Z,38.03
2019-03-28T04:58:57.133Z,32.40
2019-03-28T05:05:01.695Z,36.57
2019-03-28T05:11:07.300Z,33.70
2019-03-28T05:17:11.898Z,30.80
2019-03-28T05:23:16.480Z,34.00
2019-03-28T05:29:22.052Z,32.73
2019-03-28T05:35:26.645Z,38.73
2019-03-28T05:41:31.232Z,34.83
2019-03-28T05:47:35.822Z,28.10
2019-03-28T05:53:40.465Z,31.00
2019-03-28T05:59:45.370Z,37.60
2019-03-28T06:05:50.097Z,39.43
2019-03-28T06:11:54.832Z,31.30
2019-03-28T06:17:59.454Z,28.73
2019-03-28T06:24:04.049Z,34.33
2019-03-28T06:30:10.435Z,26.47
2019-03-28T06:36:15.015Z,38.93
2019-03-28T06:42:19.617Z,28.27
2019-03-28T06:48:24.208Z,33.60
2019-03-28T06:54:28.810Z,31.97
2019-03-28T07:00:33.485Z,31.27
2019-03-28T07:06:38.095Z,35.23
2019-03-28T07:12:42.687Z,30.90
2019-03-28T07:18:47.366Z,28.27
2019-03-28T07:24:51.962Z,29.63
2019-03-28T07:30:56.562Z,28.53
2019-03-28T07:37:01.136Z,28.10
2019-03-28T07:43:05.792Z,26.47
2019-03-28T07:49:10.375Z,28.37
2019-03-28T07:55:16.697Z,28.30
2019-03-28T08:01:21.458Z,29.43
2019-03-28T08:07:26.054Z,33.30
2019-03-28T08:13:30.687Z,29.60
2019-03-28T08:19:35.274Z,23.03
2019-03-28T08:25:40.069Z,23.20
2019-03-28T08:31:46.590Z,32.33
2019-03-28T08:37:51.324Z,29.40
2019-03-28T08:43:55.924Z,29.07
2019-03-28T08:50:00.528Z,29.37
2019-03-28T08:56:05.118Z,17.20
2019-03-28T09:02:09.770Z,20.30
2019-03-28T09:08:14.364Z,29.27
2019-03-28T09:14:18.958Z,18.00
2019-03-28T09:20:23.618Z,19.30
2019-03-28T09:26:28.287Z,18.77
2019-03-28T09:32:33.045Z,17.87
2019-03-28T09:38:37.639Z,14.83
2019-03-28T09:44:42.225Z,16.77
2019-03-28T09:50:46.817Z,12.70
2019-03-28T09:56:51.430Z,12.47
2019-03-28T10:02:56.079Z,9.93
2019-03-28T10:09:00.738Z,11.60
2019-03-28T10:15:08.050Z,11.13
2019-03-28T10:21:12.716Z,11.70
2019-03-28T10:27:19.195Z,13.60
2019-03-28T10:33:24.538Z,12.17
2019-03-28T10:39:29.421Z,10.53
2019-03-28T10:45:34.138Z,14.67
2019-03-28T10:51:38.807Z,12.87
2019-03-28T10:57:43.437Z,10.33
2019-03-28T11:03:48.809Z,12.00
2019-03-28T11:09:53.408Z,12.80
2019-03-28T11:15:58.019Z,11.30
2019-03-28T11:22:02.605Z,12.23
2019-03-28T11:28:07.365Z,13.83
2019-03-28T11:34:12.067Z,16.43
2019-03-28T11:40:16.895Z,9.47
2019-03-28T11:46:21.493Z,7.93
2019-03-28T11:52:26.075Z,7.10
2019-03-28T11:58:30.690Z,5.47
2019-03-28T12:04:38.541Z,7.47
2019-03-28T12:10:41.675Z,13.13
2019-03-28T12:16:46.273Z,7.80
2019-03-28T12:22:55.754Z,9.87
2019-03-28T12:28:58.782Z,5.90
2019-03-28T12:35:03.371Z,7.03
2019-03-28T12:41:08.041Z,7.30
2019-03-28T12:47:12.706Z,8.43
2019-03-28T12:53:17.300Z,5.90
2019-03-28T12:59:21.892Z,9.13
2019-03-28T13:05:26.482Z,5.70
2019-03-28T13:11:31.069Z,10.40
2019-03-28T13:17:35.680Z,4.70
2019-03-28T13:23:40.364Z,6.37
2019-03-28T13:29:44.975Z,10.90
2019-03-28T13:35:49.547Z,5.90
2019-03-28T13:41:54.192Z,6.10
2019-03-28T13:47:58.753Z,5.67
2019-03-28T13:54:03.307Z,5.83
2019-03-28T14:00:10.678Z,5.70
2019-03-28T14:06:15.310Z,11.87
2019-03-28T14:12:23.332Z,4.33
2019-03-28T14:18:27.187Z,12.37
2019-03-28T14:24:31.757Z,6.70
2019-03-28T14:30:39.408Z,6.80
2019-03-28T14:36:42.619Z,4.33
2019-03-28T14:42:47.169Z,7.60
2019-03-28T14:48:51.780Z,5.60
2019-03-28T14:54:56.474Z,5.63
2019-03-28T15:01:01.108Z,6.60
2019-03-28T15:07:07.373Z,7.13
2019-03-28T15:13:12.186Z,9.60
2019-03-28T15:19:16.765Z,8.77
2019-03-28T15:25:21.399Z,12.20
2019-03-28T15:31:26.042Z,20.10
2019-03-28T15:37:30.624Z,10.10
2019-03-28T15:43:35.269Z,9.40
2019-03-28T15:49:39.888Z,11.17
2019-03-28T15:55:44.472Z,13.17
2019-03-28T16:01:49.107Z,10.40
2019-03-28T16:07:59.295Z,11.57
2019-03-28T16:14:03.418Z,6.47
2019-03-28T16:20:09.282Z,14.00
2019-03-28T16:26:13.909Z,10.63
2019-03-28T16:32:18.541Z,8.33
2019-03-28T16:38:23.098Z,9.10
2019-03-28T16:44:27.718Z,10.67
2019-03-28T16:50:32.290Z,10.57
2019-03-28T16:56:36.948Z,8.90
2019-03-28T17:02:41.768Z,14.23
2019-03-28T17:08:46.881Z,15.73
2019-03-28T17:14:51.801Z,22.10
2019-03-28T17:20:57.315Z,11.50
2019-03-28T17:27:01.959Z,10.10
2019-03-28T17:33:06.542Z,13.57
2019-03-28T17:39:11.118Z,8.70
2019-03-28T17:45:15.688Z,15.90
2019-03-28T17:51:20.323Z,9.43
2019-03-28T17:57:24.915Z,8.63
2019-03-28T18:03:31.360Z,7.77
2019-03-28T18:09:35.887Z,7.00
2019-03-28T18:15:40.707Z,7.93
2019-03-28T18:21:46.044Z,12.47
2019-03-28T18:27:50.753Z,7.83
2019-03-28T18:33:55.305Z,8.90
2019-03-28T18:39:59.858Z,8.60
2019-03-28T18:46:04.474Z,7.27
2019-03-28T18:52:09.170Z,16.13
2019-03-28T18:58:13.735Z,10.50
2019-03-28T19:04:18.297Z,6.77
2019-03-28T19:10:23.006Z,8.90
2019-03-28T19:16:27.592Z,5.87
2019-03-28T19:22:32.211Z,7.70
2019-03-28T19:28:36.765Z,7.60
2019-03-28T19:34:41.406Z,10.17
2019-03-28T19:40:46.039Z,10.63
2019-03-28T19:46:50.667Z,9.07
2019-03-28T19:52:55.297Z,9.27
2019-03-28T19:58:59.873Z,9.57
2019-03-28T20:05:06.215Z,8.00
2019-03-28T20:11:10.939Z,10.07
2019-03-28T20:17:15.755Z,8.37
2019-03-28T20:23:20.329Z,11.33
2019-03-28T20:29:24.938Z,11.53
2019-03-28T20:35:29.562Z,10.17
2019-03-28T20:41:34.180Z,10.07
2019-03-28T20:47:40.410Z,18.03
2019-03-28T20:53:44.990Z,13.33
2019-03-28T20:59:49.646Z,10.20
2019-03-28T21:05:54.326Z,10.60
2019-03-28T21:11:58.972Z,14.60
2019-03-28T21:18:03.622Z,17.47
2019-03-28T21:24:08.192Z,14.17
2019-03-28T21:30:13.220Z,11.40
2019-03-28T21:36:29.105Z,10.17
2019-03-28T21:42:24.070Z,12.80
2019-03-28T21:48:28.640Z,13.33
2019-03-28T21:54:33.264Z,14.63
2019-03-28T22:00:37.891Z,15.20
2019-03-28T22:06:43.407Z,15.33
2019-03-28T22:12:48.264Z,16.70
2019-03-28T22:18:52.905Z,16.60
2019-03-28T22:24:57.528Z,14.43
2019-03-28T22:31:02.144Z,15.93
2019-03-28T22:37:06.694Z,14.33
2019-03-28T22:43:11.246Z,13.33
2019-03-28T22:49:15.823Z,14.67
2019-03-28T22:55:20.391Z,19.60
2019-03-28T23:01:25.112Z,16.93
2019-03-28T23:07:29.670Z,17.80
2019-03-28T23:13:34.332Z,18.50
2019-03-28T23:19:38.888Z,20.57
2019-03-28T23:25:43.448Z,16.00
2019-03-28T23:31:50.655Z,13.60
2019-03-28T23:37:54.350Z,16.70
2019-03-28T23:43:58.913Z,16.90
2019-03-28T23:50:03.661Z,23.97
2019-03-28T23:56:08.208Z,16.80
